Accueil
METAR-TAF:

METAR-TAF

Aéroports :

Columbus, Mississippi, États-Unis

latitude: 33-39N, longitude: 088-27W, altitude: 67 m

Observation

Le bulletin a été fait il y a 1 heure et 0 minutes, à 16:01 UTC
Vent 4 kt de sud/sud-est
Température 12°C
Humidité 94%
Pression 1018 hPa
Visibilité: 11.3 km
Ciel couvert à une hauteur de 400 ft

METAR: KCBM 171601Z AUTO 15004KT 7SM OVC004 12/11 A3007 RMK AO2 SLP186 $

Heure: 11:01 (17:01 UTC)


TAF: absent

Observations et prévisions météorologiques de plus de 4000 aéroports (messages METAR et TAF).

Les stations disponibles sont représentées par des disques jaunes et rouges sur la carte.

Passer la souris dessus pour voir le nom de la station.

Cliquer dessus pour voir les observations et prévisions météorologiques.

Pour changer de carte: cliquez sur les boutons verts avec une croix noire pour zoomer, sur le bouton vert avec un tiret pour effectuer un zoom arrière, ou sur les flèches vertes pour les cartes adjacentes.


METAR-TAF: